Time,TemperatureF,DewpointF,PressureIn,WindDirection,WindDirectionDegrees,WindSpeedMPH,WindSpeedGustMPH,Humidity,HourlyPrecipIn,Conditions,Clouds,dailyrainin,SoftwareType,DateUTC
2013-01-10 00:00:00,37.5,31.0,30.04,SW,225,0.0,0.0,77,0.00,,,0.00,WUHU215HW,2013-01-10 06:00:00,
2013-01-10 00:03:00,37.5,31.0,30.04,SW,225,0.0,0.0,77,0.00,,,0.00,WUHU215HW,2013-01-10 06:03:00,
2013-01-10 00:05:00,37.5,31.0,30.04,SW,225,0.0,0.0,77,0.00,,,0.00,WUHU215HW,2013-01-10 06:05:00,
2013-01-10 00:06:00,37.5,31.0,30.04,SW,225,0.0,0.0,77,0.00,,,0.00,WUHU215HW,2013-01-10 06:06:00,
2013-01-10 00:10:00,37.2,30.8,30.04,SW,225,0.0,0.0,77,0.00,,,0.00,WUHU215HW,2013-01-10 06:10:00,
2013-01-10 00:12:00,37.2,30.6,30.04,SW,225,0.0,0.0,77,0.00,,,0.00,WUHU215HW,2013-01-10 06:12:00,
2013-01-10 00:15:00,37.2,30.6,30.04,SSW,203,0.0,0.0,77,0.00,,,0.00,WUHU215HW,2013-01-10 06:15:00,
2013-01-10 00:20:00,37.0,30.4,30.04,SW,225,0.0,0.0,77,0.00,,,0.00,WUHU215HW,2013-01-10 06:20:00,
2013-01-10 00:24:00,37.0,30.4,30.04,SSW,203,0.0,0.0,77,0.00,,,0.00,WUHU215HW,2013-01-10 06:24:00,
2013-01-10 00:26:00,37.0,30.4,30.04,SSW,203,0.0,0.0,77,0.00,,,0.00,WUHU215HW,2013-01-10 06:26:00,
2013-01-10 00:30:00,36.8,30.3,30.04,SSW,203,0.0,0.0,77,0.00,,,0.00,WUHU215HW,2013-01-10 06:30:00,
2013-01-10 00:31:00,36.8,30.3,30.04,SSW,203,0.0,0.0,77,0.00,,,0.00,WUHU215HW,2013-01-10 06:31:00,
2013-01-10 00:32:00,36.6,30.4,30.04,SSW,203,0.0,0.0,78,0.00,,,0.00,WUHU215HW,2013-01-10 06:32:00,
2013-01-10 00:37:00,36.6,30.4,30.04,SSW,203,0.0,0.0,78,0.00,,,0.00,WUHU215HW,2013-01-10 06:37:00,
2013-01-10 00:42:00,36.5,30.4,30.04,South,180,0.0,0.0,78,0.00,,,0.00,WUHU215HW,2013-01-10 06:42:00,
2013-01-10 00:47:00,36.5,30.2,30.04,South,180,0.0,0.0,78,0.00,,,0.00,WUHU215HW,2013-01-10 06:47:00,
2013-01-10 00:50:00,36.5,30.2,30.04,SSW,203,0.0,0.0,78,0.00,,,0.00,WUHU215HW,2013-01-10 06:50:00,
2013-01-10 00:51:00,36.5,30.2,30.04,SSW,203,0.0,0.0,78,0.00,,,0.00,WUHU215HW,2013-01-10 06:51:00,
2013-01-10 00:52:00,36.5,30.2,30.04,SSW,203,0.0,0.0,78,0.00,,,0.00,WUHU215HW,2013-01-10 06:52:00,
2013-01-10 00:56:00,36.5,30.2,30.04,SSW,203,0.0,0.0,78,0.00,,,0.00,WUHU215HW,2013-01-10 06:56:00,
2013-01-10 00:57:00,36.6,30.2,30.04,South,180,0.0,0.0,78,0.00,,,0.00,WUHU215HW,2013-01-10 06:57:00,
2013-01-10 00:58:00,36.6,30.2,30.04,South,180,0.0,0.0,78,0.00,,,0.00,WUHU215HW,2013-01-10 06:58:00,
2013-01-10 01:00:00,36.6,30.2,30.04,SSW,203,0.0,0.0,78,0.00,,,0.00,WUHU215HW,2013-01-10 07:00:00,
2013-01-10 01:01:00,36.6,30.2,30.04,South,180,0.0,0.0,78,0.00,,,0.00,WUHU215HW,2013-01-10 07:01:00,
2013-01-10 01:05:00,36.6,30.4,30.04,South,180,0.0,0.0,78,0.00,,,0.00,WUHU215HW,2013-01-10 07:05:00,
2013-01-10 01:06:00,36.8,30.6,30.04,South,180,0.0,0.0,78,0.00,,,0.00,WUHU215HW,2013-01-10 07:06:00,
2013-01-10 01:11:00,36.6,30.4,30.04,South,180,0.0,0.0,78,0.00,,,0.00,WUHU215HW,2013-01-10 07:11:00,
2013-01-10 01:12:00,36.6,30.4,30.04,South,180,0.0,0.0,78,0.00,,,0.00,WUHU215HW,2013-01-10 07:12:00,
2013-01-10 01:15:00,36.5,30.2,30.04,South,180,0.0,0.0,78,0.00,,,0.00,WUHU215HW,2013-01-10 07:15:00,
2013-01-10 01:18:00,36.5,30.2,30.04,SSE,158,0.0,0.0,78,0.00,,,0.00,WUHU215HW,2013-01-10 07:18:00,
2013-01-10 01:19:00,36.5,30.2,30.04,SSE,158,0.0,0.0,78,0.00,,,0.00,WUHU215HW,2013-01-10 07:19:00,
2013-01-10 01:24:00,36.3,30.0,30.04,SSE,158,0.0,0.0,78,0.00,,,0.00,WUHU215HW,2013-01-10 07:24:00,
2013-01-10 01:26:00,36.3,30.0,30.04,SSE,158,0.0,0.0,78,0.00,,,0.00,WUHU215HW,2013-01-10 07:26:00,
2013-01-10 01:29:00,36.1,29.9,30.04,SSE,158,0.0,0.0,78,0.00,,,0.00,WUHU215HW,2013-01-10 07:29:00,
2013-01-10 01:30:00,36.1,29.9,30.04,SSE,158,0.0,0.0,78,0.00,,,0.00,WUHU215HW,2013-01-10 07:30:00,
2013-01-10 01:32:00,35.9,29.7,30.04,SSE,158,0.0,0.0,78,0.00,,,0.00,WUHU215HW,2013-01-10 07:32:00,
2013-01-10 01:35:00,35.9,29.7,30.04,SSE,158,0.0,0.0,78,0.00,,,0.00,WUHU215HW,2013-01-10 07:35:00,
2013-01-10 01:36:00,35.7,29.5,30.04,SSE,158,0.0,0.0,78,0.00,,,0.00,WUHU215HW,2013-01-10 07:36:00,
2013-01-10 01:37:00,35.7,29.5,30.04,SSE,158,0.0,0.0,78,0.00,,,0.00,WUHU215HW,2013-01-10 07:37:00,
2013-01-10 01:42:00,35.4,29.1,30.04,SSE,158,0.0,0.0,78,0.00,,,0.00,WUHU215HW,2013-01-10 07:42:00,
2013-01-10 01:45:00,35.4,29.5,30.04,SSE,158,0.0,0.0,79,0.00,,,0.00,WUHU215HW,2013-01-10 07:45:00,
2013-01-10 01:48:00,35.4,29.5,30.04,SSE,158,0.0,0.0,79,0.00,,,0.00,WUHU215HW,2013-01-10 07:48:00,
2013-01-10 01:50:00,35.2,29.5,30.04,SSE,158,0.0,0.0,79,0.00,,,0.00,WUHU215HW,2013-01-10 07:50:00,
2013-01-10 01:53:00,35.0,29.5,30.04,SSE,158,0.0,0.0,79,0.00,,,0.00,WUHU215HW,2013-01-10 07:53:00,
2013-01-10 01:56:00,34.8,28.9,30.04,SE,135,0.0,0.0,79,0.00,,,0.00,WUHU215HW,2013-01-10 07:56:00,
2013-01-10 01:58:00,34.8,28.9,30.04,SE,135,0.0,0.0,79,0.00,,,0.00,WUHU215HW,2013-01-10 07:58:00,
2013-01-10 01:59:00,34.8,28.9,30.04,SE,135,0.0,0.0,79,0.00,,,0.00,WUHU215HW,2013-01-10 07:59:00,
2013-01-10 02:02:00,34.8,28.9,30.04,SE,135,0.0,0.0,79,0.00,,,0.00,WUHU215HW,2013-01-10 08:02:00,
2013-01-10 02:04:00,34.8,28.9,30.04,SE,135,0.0,0.0,79,0.00,,,0.00,WUHU215HW,2013-01-10 08:04:00,
2013-01-10 02:07:00,34.8,29.3,30.04,SE,135,0.0,0.0,80,0.00,,,0.00,WUHU215HW,2013-01-10 08:07:00,
2013-01-10 02:08:00,34.8,29.3,30.04,SE,135,0.0,0.0,80,0.00,,,0.00,WUHU215HW,2013-01-10 08:08:00,
2013-01-10 02:09:00,34.8,29.3,30.04,SE,135,0.0,0.0,80,0.00,,,0.00,WUHU215HW,2013-01-10 08:09:00,
2013-01-10 02:13:00,34.8,29.3,30.04,SE,135,0.0,0.0,80,0.00,,,0.00,WUHU215HW,2013-01-10 08:13:00,
2013-01-10 02:14:00,34.8,29.3,30.04,SE,135,0.0,0.0,80,0.00,,,0.00,WUHU215HW,2013-01-10 08:14:00,
2013-01-10 02:17:00,34.8,29.3,30.04,SSE,158,0.0,0.0,80,0.00,,,0.00,WUHU215HW,2013-01-10 08:17:00,
2013-01-10 02:18:00,34.8,29.3,30.04,SSE,158,0.0,0.0,80,0.00,,,0.00,WUHU215HW,2013-01-10 08:18:00,
2013-01-10 02:19:00,34.8,29.3,30.04,SSE,158,0.0,0.0,80,0.00,,,0.00,WUHU215HW,2013-01-10 08:19:00,
2013-01-10 02:24:00,34.8,29.3,30.04,SSE,158,0.0,0.0,80,0.00,,,0.00,WUHU215HW,2013-01-10 08:24:00,
2013-01-10 02:25:00,34.8,29.3,30.04,SSE,158,0.0,0.0,80,0.00,,,0.00,WUHU215HW,2013-01-10 08:25:00,
2013-01-10 02:26:00,34.8,29.3,30.04,SSE,158,0.0,0.0,80,0.00,,,0.00,WUHU215HW,2013-01-10 08:26:00,
2013-01-10 02:29:00,35.0,29.3,30.04,SSE,158,0.0,0.0,80,0.00,,,0.00,WUHU215HW,2013-01-10 08:29:00,
2013-01-10 02:31:00,35.0,29.3,30.04,SSE,158,0.0,0.0,80,0.00,,,0.00,WUHU215HW,2013-01-10 08:31:00,
2013-01-10 02:32:00,35.0,29.3,30.04,SSE,158,0.0,0.0,80,0.00,,,0.00,WUHU215HW,2013-01-10 08:32:00,
2013-01-10 02:34:00,35.0,29.3,30.04,SSE,158,0.0,0.0,80,0.00,,,0.00,WUHU215HW,2013-01-10 08:34:00,
2013-01-10 02:38:00,35.2,29.6,30.04,SSE,158,0.0,0.0,80,0.00,,,0.00,WUHU215HW,2013-01-10 08:38:00,
2013-01-10 02:39:00,35.2,29.6,30.04,SSE,158,0.0,0.0,80,0.00,,,0.00,WUHU215HW,2013-01-10 08:39:00,
2013-01-10 02:44:00,35.0,29.1,30.04,SSE,158,0.0,0.0,79,0.00,,,0.00,WUHU215HW,2013-01-10 08:44:00,
2013-01-10 02:49:00,34.8,28.9,30.04,SSE,158,0.0,0.0,79,0.00,,,0.00,WUHU215HW,2013-01-10 08:49:00,
2013-01-10 02:51:00,34.8,28.9,30.04,SSE,158,0.0,0.0,79,0.00,,,0.00,WUHU215HW,2013-01-10 08:51:00,
2013-01-10 02:54:00,34.8,28.9,30.04,SSE,158,0.0,0.0,79,0.00,,,0.00,WUHU215HW,2013-01-10 08:54:00,
2013-01-10 02:57:00,35.0,29.1,30.04,SSE,158,0.0,0.0,79,0.00,,,0.00,WUHU215HW,2013-01-10 08:57:00,
2013-01-10 02:59:00,35.0,29.1,30.04,SSE,158,0.0,0.0,79,0.00,,,0.00,WUHU215HW,2013-01-10 08:59:00,
2013-01-10 03:04:00,35.4,29.5,30.04,SSE,158,0.0,0.0,79,0.00,,,0.00,WUHU215HW,2013-01-10 09:04:00,
2013-01-10 03:05:00,35.4,29.5,30.04,SSE,158,0.0,0.0,79,0.00,,,0.00,WUHU215HW,2013-01-10 09:05:00,
2013-01-10 03:09:00,35.4,29.5,30.04,SSE,158,0.0,0.0,79,0.00,,,0.00,WUHU215HW,2013-01-10 09:09:00,
2013-01-10 03:12:00,35.7,29.5,30.04,SE,135,0.0,0.0,78,0.00,,,0.00,WUHU215HW,2013-01-10 09:12:00,
2013-01-10 03:13:00,35.7,29.5,30.04,SE,135,0.0,0.0,78,0.00,,,0.00,WUHU215HW,2013-01-10 09:13:00,
2013-01-10 03:17:00,35.7,29.5,30.04,SE,135,0.0,0.0,78,0.00,,,0.00,WUHU215HW,2013-01-10 09:17:00,
2013-01-10 03:18:00,35.7,29.5,30.04,SE,135,0.0,0.0,78,0.00,,,0.00,WUHU215HW,2013-01-10 09:18:00,
2013-01-10 03:23:00,35.6,29.3,30.04,SE,135,0.0,0.0,78,0.00,,,0.00,WUHU215HW,2013-01-10 09:23:00,
2013-01-10 03:24:00,35.6,29.3,30.04,SE,135,0.0,0.0,78,0.00,,,0.00,WUHU215HW,2013-01-10 09:24:00,
2013-01-10 03:28:00,35.4,28.8,30.04,SE,135,0.0,0.0,77,0.00,,,0.00,WUHU215HW,2013-01-10 09:28:00,
2013-01-10 03:30:00,35.4,28.8,30.04,SE,135,0.0,0.0,77,0.00,,,0.00,WUHU215HW,2013-01-10 09:30:00,
2013-01-10 03:35:00,35.2,28.6,30.04,SE,135,0.0,0.0,77,0.00,,,0.00,WUHU215HW,2013-01-10 09:35:00,
2013-01-10 03:36:00,35.2,28.6,30.04,SE,135,0.0,0.0,77,0.00,,,0.00,WUHU215HW,2013-01-10 09:36:00,
2013-01-10 03:38:00,35.2,28.6,30.04,SE,135,0.0,0.0,77,0.00,,,0.00,WUHU215HW,2013-01-10 09:38:00,
2013-01-10 03:43:00,34.8,28.3,30.04,SE,135,0.0,0.0,77,0.00,,,0.00,WUHU215HW,2013-01-10 09:43:00,
2013-01-10 03:44:00,34.8,28.3,30.04,SE,135,0.0,0.0,77,0.00,,,0.00,WUHU215HW,2013-01-10 09:44:00,
2013-01-10 03:49:00,34.7,28.3,30.04,SE,135,0.0,0.0,77,0.00,,,0.00,WUHU215HW,2013-01-10 09:49:00,
2013-01-10 03:50:00,34.7,28.3,30.04,SE,135,0.0,0.0,77,0.00,,,0.00,WUHU215HW,2013-01-10 09:50:00,
2013-01-10 03:54:00,34.5,28.3,30.04,SE,135,0.0,0.0,77,0.00,,,0.00,WUHU215HW,2013-01-10 09:54:00,
2013-01-10 03:55:00,34.3,27.7,30.04,SE,135,0.0,0.0,78,0.00,,,0.00,WUHU215HW,2013-01-10 09:55:00,
2013-01-10 03:56:00,34.3,27.7,30.04,SE,135,0.0,0.0,78,0.00,,,0.00,WUHU215HW,2013-01-10 09:56:00,
2013-01-10 03:59:00,34.1,27.7,30.04,SE,135,0.0,0.0,78,0.00,,,0.00,WUHU215HW,2013-01-10 09:59:00,
2013-01-10 04:00:00,34.1,27.7,30.04,SE,135,0.0,0.0,78,0.00,,,0.00,WUHU215HW,2013-01-10 10:00:00,
2013-01-10 04:04:00,34.1,27.9,30.04,SE,135,0.0,0.0,78,0.00,,,0.00,WUHU215HW,2013-01-10 10:04:00,
2013-01-10 04:06:00,33.9,27.7,30.04,SE,135,0.0,0.0,78,0.00,,,0.00,WUHU215HW,2013-01-10 10:06:00,
2013-01-10 04:11:00,33.9,27.7,30.04,SE,135,0.0,0.0,78,0.00,,,0.00,WUHU215HW,2013-01-10 10:11:00,
2013-01-10 04:13:00,33.9,27.7,30.04,SE,135,0.0,0.0,78,0.00,,,0.00,WUHU215HW,2013-01-10 10:13:00,
2013-01-10 04:15:00,33.9,27.7,30.04,SE,135,0.0,0.0,78,0.00,,,0.00,WUHU215HW,2013-01-10 10:15:00,
2013-01-10 04:16:00,33.9,27.7,30.04,SE,135,0.0,0.0,78,0.00,,,0.00,WUHU215HW,2013-01-10 10:16:00,
2013-01-10 04:20:00,33.9,27.7,30.04,SE,135,0.0,0.0,78,0.00,,,0.00,WUHU215HW,2013-01-10 10:20:00,
2013-01-10 04:22:00,33.8,27.7,30.04,SE,135,0.0,0.0,78,0.00,,,0.00,WUHU215HW,2013-01-10 10:22:00,
2013-01-10 04:27:00,33.6,27.7,30.04,SE,135,0.0,0.0,77,0.00,,,0.00,WUHU215HW,2013-01-10 10:27:00,
2013-01-10 04:28:00,33.6,27.7,30.04,SE,135,0.0,0.0,77,0.00,,,0.00,WUHU215HW,2013-01-10 10:28:00,
2013-01-10 04:33:00,33.4,26.9,30.04,SE,135,0.0,0.0,77,0.00,,,0.00,WUHU215HW,2013-01-10 10:33:00,
2013-01-10 04:35:00,33.4,26.9,30.04,SE,135,0.0,0.0,77,0.00,,,0.00,WUHU215HW,2013-01-10 10:35:00,
2013-01-10 04:38:00,33.2,27.0,30.04,SE,135,0.0,0.0,78,0.00,,,0.00,WUHU215HW,2013-01-10 10:38:00,
2013-01-10 04:39:00,33.2,27.0,30.04,SE,135,0.0,0.0,78,0.00,,,0.00,WUHU215HW,2013-01-10 10:39:00,
2013-01-10 04:42:00,33.0,26.9,30.04,SE,135,0.0,0.0,78,0.00,,,0.00,WUHU215HW,2013-01-10 10:42:00,
2013-01-10 04:44:00,33.0,26.9,30.04,SE,135,0.0,0.0,78,0.00,,,0.00,WUHU215HW,2013-01-10 10:44:00,
2013-01-10 04:48:00,33.0,26.9,30.04,SE,135,0.0,0.0,78,0.00,,,0.00,WUHU215HW,2013-01-10 10:48:00,
2013-01-10 04:49:00,32.7,26.9,30.04,SE,135,0.0,0.0,78,0.00,,,0.00,WUHU215HW,2013-01-10 10:49:00,
2013-01-10 04:50:00,32.7,26.9,30.04,SE,135,0.0,0.0,78,0.00,,,0.00,WUHU215HW,2013-01-10 10:50:00,
2013-01-10 04:55:00,32.5,26.4,30.04,SE,135,0.0,0.0,78,0.00,,,0.00,WUHU215HW,2013-01-10 10:55:00,
2013-01-10 04:56:00,32.5,26.4,30.04,SE,135,0.0,0.0,78,0.00,,,0.00,WUHU215HW,2013-01-10 10:56:00,
2013-01-10 04:57:00,32.3,26.2,30.04,SE,135,0.0,0.0,78,0.00,,,0.00,WUHU215HW,2013-01-10 10:57:00,
2013-01-10 05:01:00,32.1,26.1,30.04,SE,135,0.0,0.0,78,0.00,,,0.00,WUHU215HW,2013-01-10 11:01:00,
2013-01-10 05:02:00,32.1,26.1,30.04,SE,135,0.0,0.0,78,0.00,,,0.00,WUHU215HW,2013-01-10 11:02:00,
2013-01-10 05:07:00,31.8,26.0,30.04,SE,135,0.0,0.0,79,0.00,,,0.00,WUHU215HW,2013-01-10 11:07:00,
2013-01-10 05:10:00,31.6,25.9,30.04,SE,135,0.0,0.0,79,0.00,,,0.00,WUHU215HW,2013-01-10 11:10:00,
2013-01-10 05:12:00,31.6,25.9,30.04,SE,135,0.0,0.0,79,0.00,,,0.00,WUHU215HW,2013-01-10 11:12:00,
2013-01-10 05:16:00,31.6,25.9,30.04,SE,135,0.0,0.0,79,0.00,,,0.00,WUHU215HW,2013-01-10 11:16:00,
2013-01-10 05:18:00,31.6,25.9,30.04,SE,135,0.0,0.0,79,0.00,,,0.00,WUHU215HW,2013-01-10 11:18:00,
2013-01-10 05:21:00,31.6,25.9,30.04,SE,135,0.0,0.0,79,0.00,,,0.00,WUHU215HW,2013-01-10 11:21:00,
2013-01-10 05:26:00,31.6,25.9,30.04,SSE,158,0.0,0.0,79,0.00,,,0.00,WUHU215HW,2013-01-10 11:26:00,
2013-01-10 05:30:00,31.6,26.2,30.04,SSE,158,0.0,0.0,80,0.00,,,0.00,WUHU215HW,2013-01-10 11:30:00,
2013-01-10 05:31:00,31.6,26.2,30.04,SSE,158,0.0,0.0,80,0.00,,,0.00,WUHU215HW,2013-01-10 11:31:00,
2013-01-10 05:33:00,31.6,26.2,30.04,SSE,158,0.0,0.0,80,0.00,,,0.00,WUHU215HW,2013-01-10 11:33:00,
2013-01-10 05:35:00,31.6,26.2,30.04,SSE,158,0.0,0.0,80,0.00,,,0.00,WUHU215HW,2013-01-10 11:35:00,
2013-01-10 05:36:00,31.6,26.2,30.04,SSE,158,0.0,0.0,80,0.00,,,0.00,WUHU215HW,2013-01-10 11:36:00,
2013-01-10 05:39:00,31.6,26.2,30.04,SSE,158,0.0,0.0,80,0.00,,,0.00,WUHU215HW,2013-01-10 11:39:00,
2013-01-10 05:41:00,31.6,26.2,30.04,SSE,158,0.0,0.0,80,0.00,,,0.00,WUHU215HW,2013-01-10 11:41:00,
2013-01-10 05:42:00,31.6,26.2,30.04,SSE,158,0.0,0.0,80,0.00,,,0.00,WUHU215HW,2013-01-10 11:42:00,
2013-01-10 05:44:00,31.6,26.2,30.04,SSE,158,0.0,0.0,80,0.00,,,0.00,WUHU215HW,2013-01-10 11:44:00,
2013-01-10 05:47:00,31.6,26.2,30.04,SSE,158,0.0,0.0,80,0.00,,,0.00,WUHU215HW,2013-01-10 11:47:00,
2013-01-10 05:50:00,31.6,26.2,30.04,SSE,158,0.0,0.0,80,0.00,,,0.00,WUHU215HW,2013-01-10 11:50:00,
2013-01-10 05:51:00,31.6,26.2,30.04,SSE,158,0.0,0.0,80,0.00,,,0.00,WUHU215HW,2013-01-10 11:51:00,
2013-01-10 05:55:00,31.8,26.4,30.04,SSE,158,0.0,0.0,80,0.00,,,0.00,WUHU215HW,2013-01-10 11:55:00,
2013-01-10 05:56:00,31.8,26.4,30.04,SSE,158,0.0,0.0,80,0.00,,,0.00,WUHU215HW,2013-01-10 11:56:00,
2013-01-10 05:57:00,31.8,26.4,30.04,SSE,158,0.0,0.0,80,0.00,,,0.00,WUHU215HW,2013-01-10 11:57:00,
2013-01-10 06:00:00,31.8,26.4,30.04,SSE,158,0.0,0.0,80,0.00,,,0.00,WUHU215HW,2013-01-10 12:00:00,
2013-01-10 06:02:00,31.8,26.4,30.04,SSE,158,0.0,0.0,80,0.00,,,0.00,WUHU215HW,2013-01-10 12:02:00,
2013-01-10 06:03:00,31.8,26.4,30.04,SSE,158,0.0,0.0,80,0.00,,,0.00,WUHU215HW,2013-01-10 12:03:00,
2013-01-10 06:04:00,31.8,26.4,30.04,SSE,158,0.0,0.0,80,0.00,,,0.00,WUHU215HW,2013-01-10 12:04:00,
2013-01-10 06:06:00,31.8,26.4,30.04,SSE,158,0.0,0.0,80,0.00,,,0.00,WUHU215HW,2013-01-10 12:06:00,
2013-01-10 06:07:00,31.8,26.4,30.04,SSE,158,0.0,0.0,80,0.00,,,0.00,WUHU215HW,2013-01-10 12:07:00,
2013-01-10 06:11:00,31.8,26.4,30.04,SSE,158,0.0,0.0,80,0.00,,,0.00,WUHU215HW,2013-01-10 12:11:00,
2013-01-10 06:12:00,31.8,26.4,30.04,SSE,158,0.0,0.0,80,0.00,,,0.00,WUHU215HW,2013-01-10 12:12:00,
2013-01-10 06:14:00,31.8,26.4,30.04,SSE,158,0.0,0.0,80,0.00,,,0.00,WUHU215HW,2013-01-10 12:14:00,
2013-01-10 06:17:00,31.8,26.4,30.04,SSE,158,0.0,0.0,80,0.00,,,0.00,WUHU215HW,2013-01-10 12:17:00,
2013-01-10 06:18:00,31.8,26.4,30.04,SSE,158,0.0,0.0,80,0.00,,,0.00,WUHU215HW,2013-01-10 12:18:00,
2013-01-10 06:21:00,31.8,26.4,30.04,SSE,158,0.0,0.0,80,0.00,,,0.00,WUHU215HW,2013-01-10 12:21:00,
2013-01-10 06:23:00,31.8,26.4,30.04,SSE,158,0.0,0.0,80,0.00,,,0.00,WUHU215HW,2013-01-10 12:23:00,
2013-01-10 06:25:00,31.8,26.4,30.04,SSE,158,0.0,0.0,80,0.00,,,0.00,WUHU215HW,2013-01-10 12:25:00,
2013-01-10 06:28:00,31.8,26.4,30.04,SSE,158,0.0,0.0,80,0.00,,,0.00,WUHU215HW,2013-01-10 12:28:00,
2013-01-10 06:29:00,31.8,26.4,30.04,SSE,158,0.0,0.0,80,0.00,,,0.00,WUHU215HW,2013-01-10 12:29:00,
2013-01-10 06:30:00,31.8,26.4,30.04,SSE,158,0.0,0.0,80,0.00,,,0.00,WUHU215HW,2013-01-10 12:30:00,
2013-01-10 06:32:00,31.8,26.4,30.04,SSE,158,0.0,0.0,80,0.00,,,0.00,WUHU215HW,2013-01-10 12:32:00,
2013-01-10 06:35:00,31.8,26.4,30.04,SSE,158,0.0,0.0,80,0.00,,,0.00,WUHU215HW,2013-01-10 12:35:00,
2013-01-10 06:38:00,31.8,26.4,30.04,SSE,158,0.0,0.0,80,0.00,,,0.00,WUHU215HW,2013-01-10 12:38:00,
2013-01-10 06:42:00,32.3,26.4,30.04,SSE,158,0.0,0.0,80,0.00,,,0.00,WUHU215HW,2013-01-10 12:42:00,
2013-01-10 06:43:00,32.3,26.4,30.04,SSE,158,0.0,0.0,80,0.00,,,0.00,WUHU215HW,2013-01-10 12:43:00,
2013-01-10 06:44:00,32.3,26.4,30.04,SSE,158,0.0,0.0,80,0.00,,,0.00,WUHU215HW,2013-01-10 12:44:00,
2013-01-10 06:48:00,32.3,26.4,30.04,SSE,158,0.0,0.0,80,0.00,,,0.00,WUHU215HW,2013-01-10 12:48:00,
2013-01-10 06:50:00,32.7,26.4,30.04,SSE,158,0.0,0.0,79,0.00,,,0.00,WUHU215HW,2013-01-10 12:50:00,
2013-01-10 06:51:00,32.7,26.4,30.04,SSE,158,0.0,0.0,79,0.00,,,0.00,WUHU215HW,2013-01-10 12:51:00,
2013-01-10 06:53:00,32.7,26.4,30.04,SSE,158,0.0,0.0,79,0.00,,,0.00,WUHU215HW,2013-01-10 12:53:00,
2013-01-10 06:56:00,32.7,26.4,30.04,SSE,158,0.0,0.0,79,0.00,,,0.00,WUHU215HW,2013-01-10 12:56:00,
2013-01-10 07:00:00,33.4,27.5,30.04,SSE,158,0.0,0.0,79,0.00,,,0.00,WUHU215HW,2013-01-10 13:00:00,
2013-01-10 07:01:00,33.4,27.5,30.04,SSE,158,0.0,0.0,79,0.00,,,0.00,WUHU215HW,2013-01-10 13:01:00,
2013-01-10 07:05:00,33.6,27.7,30.04,SSE,158,0.0,0.0,79,0.00,,,0.00,WUHU215HW,2013-01-10 13:05:00,
2013-01-10 07:09:00,33.6,27.7,30.04,SSE,158,0.0,0.0,79,0.00,,,0.00,WUHU215HW,2013-01-10 13:09:00,
2013-01-10 07:10:00,33.8,27.7,30.04,SSE,158,0.0,0.0,78,0.00,,,0.00,WUHU215HW,2013-01-10 13:10:00,
2013-01-10 07:14:00,33.8,27.7,30.04,SSE,158,0.0,0.0,78,0.00,,,0.00,WUHU215HW,2013-01-10 13:14:00,
2013-01-10 07:15:00,33.8,27.7,30.04,SSE,158,0.0,0.0,78,0.00,,,0.00,WUHU215HW,2013-01-10 13:15:00,
2013-01-10 07:16:00,33.8,27.7,30.04,SSE,158,0.0,0.0,78,0.00,,,0.00,WUHU215HW,2013-01-10 13:16:00,
2013-01-10 07:21:00,33.8,27.5,30.04,SSE,158,0.0,0.0,78,0.00,,,0.00,WUHU215HW,2013-01-10 13:21:00,
2013-01-10 07:26:00,33.8,27.5,30.04,SSE,158,0.0,0.0,78,0.00,,,0.00,WUHU215HW,2013-01-10 13:26:00,
2013-01-10 07:31:00,33.9,27.7,30.04,SSE,158,0.0,0.0,78,0.00,,,0.00,WUHU215HW,2013-01-10 13:31:00,
2013-01-10 07:33:00,33.9,27.4,30.04,SSE,158,0.0,0.0,77,0.00,,,0.00,WUHU215HW,2013-01-10 13:33:00,
2013-01-10 07:37:00,33.9,27.4,30.04,SSE,158,0.0,0.0,77,0.00,,,0.00,WUHU215HW,2013-01-10 13:37:00,
2013-01-10 07:39:00,34.1,27.6,30.04,SSE,158,0.0,0.0,77,0.00,,,0.00,WUHU215HW,2013-01-10 13:39:00,
2013-01-10 07:42:00,34.1,27.6,30.04,SSE,158,0.0,0.0,77,0.00,,,0.00,WUHU215HW,2013-01-10 13:42:00,
2013-01-10 07:43:00,34.1,27.6,30.04,SSE,158,0.0,0.0,77,0.00,,,0.00,WUHU215HW,2013-01-10 13:43:00,
2013-01-10 07:47:00,34.3,27.7,30.04,East,90,0.0,0.0,77,0.00,,,0.00,WUHU215HW,2013-01-10 13:47:00,
2013-01-10 07:48:00,34.3,27.7,30.04,ESE,113,0.0,0.0,77,0.00,,,0.00,WUHU215HW,2013-01-10 13:48:00,
2013-01-10 07:53:00,34.5,27.9,30.04,SE,135,0.0,0.0,77,0.00,,,0.00,WUHU215HW,2013-01-10 13:53:00,
2013-01-10 07:55:00,34.5,27.9,30.04,SE,135,0.0,0.0,77,0.00,,,0.00,WUHU215HW,2013-01-10 13:55:00,
2013-01-10 07:59:00,34.7,27.8,30.04,SSE,158,0.0,0.0,76,0.00,,,0.00,WUHU215HW,2013-01-10 13:59:00,
2013-01-10 08:00:00,34.7,27.8,30.04,SSE,158,0.0,0.0,76,0.00,,,0.00,WUHU215HW,2013-01-10 14:00:00,
2013-01-10 08:05:00,34.8,28.0,30.04,SE,135,0.0,0.0,76,0.00,,,0.00,WUHU215HW,2013-01-10 14:05:00,
2013-01-10 08:07:00,34.8,28.0,30.04,SE,135,0.0,0.0,76,0.00,,,0.00,WUHU215HW,2013-01-10 14:07:00,
2013-01-10 08:10:00,35.2,28.0,30.04,SE,135,0.0,0.0,75,0.00,,,0.00,WUHU215HW,2013-01-10 14:10:00,
2013-01-10 08:13:00,35.2,28.0,30.04,SSE,158,0.0,0.0,75,0.00,,,0.00,WUHU215HW,2013-01-10 14:13:00,
2013-01-10 08:15:00,35.4,28.0,30.04,SSE,158,0.0,0.0,75,0.00,,,0.00,WUHU215HW,2013-01-10 14:15:00,
2013-01-10 08:17:00,35.4,28.0,30.04,SSE,158,0.0,0.0,75,0.00,,,0.00,WUHU215HW,2013-01-10 14:17:00,
2013-01-10 08:21:00,35.4,28.2,30.04,SSE,158,0.0,0.0,74,0.00,,,0.00,WUHU215HW,2013-01-10 14:21:00,
2013-01-10 08:23:00,35.7,28.2,30.04,SSE,158,0.0,0.0,74,0.00,,,0.00,WUHU215HW,2013-01-10 14:23:00,
2013-01-10 08:26:00,35.7,28.2,30.04,SSE,158,0.0,0.0,74,0.00,,,0.00,WUHU215HW,2013-01-10 14:26:00,
2013-01-10 08:29:00,35.9,28.4,30.04,ENE,68,0.0,0.0,74,0.00,,,0.00,WUHU215HW,2013-01-10 14:29:00,
2013-01-10 08:31:00,36.1,28.4,30.04,ENE,68,0.0,0.0,74,0.00,,,0.00,WUHU215HW,2013-01-10 14:31:00,
2013-01-10 08:34:00,36.1,28.6,30.04,SSE,158,0.0,0.0,74,0.00,,,0.00,WUHU215HW,2013-01-10 14:34:00,
2013-01-10 08:36:00,36.3,28.6,30.04,SSE,158,0.0,0.0,74,0.00,,,0.00,WUHU215HW,2013-01-10 14:36:00,
2013-01-10 08:41:00,36.5,28.4,30.04,SSE,158,0.0,0.0,73,0.00,,,0.00,WUHU215HW,2013-01-10 14:41:00,
2013-01-10 08:45:00,36.6,28.5,30.04,SE,135,0.0,0.0,72,0.00,,,0.00,WUHU215HW,2013-01-10 14:45:00,
2013-01-10 08:46:00,37.0,28.5,30.04,SE,135,0.0,0.0,72,0.00,,,0.00,WUHU215HW,2013-01-10 14:46:00,
2013-01-10 08:49:00,37.0,28.5,30.04,SE,135,0.0,0.0,72,0.00,,,0.00,WUHU215HW,2013-01-10 14:49:00,
2013-01-10 08:52:00,37.4,28.5,30.04,SE,135,0.0,0.0,71,0.00,,,0.00,WUHU215HW,2013-01-10 14:52:00,
2013-01-10 08:53:00,37.4,28.5,30.04,SSE,158,0.0,0.0,71,0.00,,,0.00,WUHU215HW,2013-01-10 14:53:00,
2013-01-10 08:54:00,37.4,28.5,30.04,SSE,158,0.0,0.0,71,0.00,,,0.00,WUHU215HW,2013-01-10 14:54:00,
2013-01-10 08:58:00,37.5,29.0,30.04,SE,135,0.0,0.0,71,0.00,,,0.00,WUHU215HW,2013-01-10 14:58:00,
2013-01-10 09:00:00,37.7,29.2,30.04,SE,135,0.0,0.0,71,0.00,,,0.00,WUHU215HW,2013-01-10 15:00:00,
2013-01-10 09:01:00,37.8,29.3,30.04,SE,135,0.0,0.0,71,0.00,,,0.00,WUHU215HW,2013-01-10 15:01:00,
2013-01-10 09:04:00,37.7,29.2,30.04,SSE,158,0.0,0.0,71,0.00,,,0.00,WUHU215HW,2013-01-10 15:04:00,
2013-01-10 09:09:00,37.6,28.8,30.04,SSE,158,0.0,0.0,70,0.00,,,0.00,WUHU215HW,2013-01-10 15:09:00,
2013-01-10 09:10:00,37.8,28.9,30.04,SSE,158,0.0,0.0,70,0.00,,,0.00,WUHU215HW,2013-01-10 15:10:00,
2013-01-10 09:14:00,37.7,28.8,30.04,SSE,158,0.0,0.0,70,0.00,,,0.00,WUHU215HW,2013-01-10 15:14:00,
2013-01-10 09:16:00,37.6,28.7,30.04,SSE,158,0.0,0.0,70,0.00,,,0.00,WUHU215HW,2013-01-10 15:16:00,
2013-01-10 09:18:00,37.5,28.6,30.04,NNE,23,0.0,0.0,70,0.00,,,0.00,WUHU215HW,2013-01-10 15:18:00,
2013-01-10 09:21:00,37.3,28.5,30.04,NNE,23,0.0,0.0,70,0.00,,,0.00,WUHU215HW,2013-01-10 15:21:00,
2013-01-10 09:22:00,37.3,28.5,30.04,NNE,23,0.0,0.0,70,0.00,,,0.00,WUHU215HW,2013-01-10 15:22:00,
2013-01-10 09:23:00,37.2,28.1,30.04,NNE,23,0.0,0.0,69,0.00,,,0.00,WUHU215HW,2013-01-10 15:23:00,
2013-01-10 09:25:00,37.1,28.0,30.04,NNE,23,0.0,0.0,69,0.00,,,0.00,WUHU215HW,2013-01-10 15:25:00,
2013-01-10 09:28:00,37.4,28.5,30.04,South,180,0.0,0.0,70,0.00,,,0.00,WUHU215HW,2013-01-10 15:28:00,
2013-01-10 09:33:00,37.1,28.3,30.04,SE,135,0.0,0.0,70,0.00,,,0.00,WUHU215HW,2013-01-10 15:33:00,
2013-01-10 09:39:00,36.8,28.0,30.04,SE,135,0.0,0.0,70,0.00,,,0.00,WUHU215HW,2013-01-10 15:39:00,
2013-01-10 09:41:00,36.7,27.9,30.04,SE,135,0.0,0.0,70,0.00,,,0.00,WUHU215HW,2013-01-10 15:41:00,
2013-01-10 09:43:00,36.6,28.2,30.04,SSE,158,0.0,0.0,71,0.00,,,0.00,WUHU215HW,2013-01-10 15:43:00,
2013-01-10 09:44:00,36.6,28.1,30.04,SSE,158,0.0,0.0,71,0.00,,,0.00,WUHU215HW,2013-01-10 15:44:00,
2013-01-10 09:48:00,36.4,28.3,30.04,SSE,158,0.0,0.0,72,0.00,,,0.00,WUHU215HW,2013-01-10 15:48:00,
2013-01-10 09:49:00,36.3,28.2,30.04,SSE,158,0.0,0.0,72,0.00,,,0.00,WUHU215HW,2013-01-10 15:49:00,
2013-01-10 09:55:00,36.0,28.0,30.04,SSE,158,0.0,0.0,72,0.00,,,0.00,WUHU215HW,2013-01-10 15:55:00,
2013-01-10 09:57:00,35.9,28.8,30.04,SSE,158,0.0,0.0,75,0.00,,,0.00,WUHU215HW,2013-01-10 15:57:00,
2013-01-10 10:00:00,36.0,29.2,30.04,SSE,158,0.0,0.0,76,0.00,,,0.00,WUHU215HW,2013-01-10 16:00:00,
2013-01-10 10:05:00,35.8,29.0,30.04,SSE,158,0.0,0.0,76,0.00,,,0.00,WUHU215HW,2013-01-10 16:05:00,
2013-01-10 10:06:00,35.7,29.0,30.04,SSE,158,0.0,0.0,76,0.00,,,0.00,WUHU215HW,2013-01-10 16:06:00,
2013-01-10 10:11:00,35.5,28.7,30.04,SSE,158,0.0,0.0,76,0.00,,,0.00,WUHU215HW,2013-01-10 16:11:00,
2013-01-10 10:12:00,35.3,28.8,30.04,SSE,158,0.0,0.0,77,0.00,,,0.00,WUHU215HW,2013-01-10 16:12:00,
2013-01-10 10:17:00,34.6,28.5,30.04,SSE,158,0.0,0.0,78,0.00,,,0.00,WUHU215HW,2013-01-10 16:17:00,
2013-01-10 10:20:00,34.4,28.3,30.04,SE,135,0.0,0.0,78,0.00,,,0.00,WUHU215HW,2013-01-10 16:20:00,
2013-01-10 10:22:00,34.1,28.0,30.04,SE,135,0.0,0.0,78,0.00,,,0.00,WUHU215HW,2013-01-10 16:22:00,
2013-01-10 10:26:00,34.0,28.2,30.04,SSE,158,0.0,0.0,79,0.00,,,0.00,WUHU215HW,2013-01-10 16:26:00,
2013-01-10 10:27:00,33.7,28.2,30.04,SSE,158,0.0,0.0,80,0.00,,,0.00,WUHU215HW,2013-01-10 16:27:00,
2013-01-10 10:32:00,33.5,28.3,30.04,SE,135,0.0,0.0,81,0.00,,,0.00,WUHU215HW,2013-01-10 16:32:00,
2013-01-10 10:33:00,33.5,28.3,30.04,SE,135,0.0,0.0,81,0.00,,,0.00,WUHU215HW,2013-01-10 16:33:00,
2013-01-10 10:37:00,33.3,28.4,30.04,SSE,158,0.0,0.0,82,0.00,,,0.00,WUHU215HW,2013-01-10 16:37:00,
2013-01-10 10:39:00,33.2,28.3,30.04,SSE,158,0.0,0.0,82,0.00,,,0.00,WUHU215HW,2013-01-10 16:39:00,
2013-01-10 10:42:00,32.9,28.0,30.04,SSE,158,0.0,0.0,82,0.00,,,0.00,WUHU215HW,2013-01-10 16:42:00,
2013-01-10 10:44:00,32.9,28.2,30.04,SE,135,0.0,0.0,83,0.00,,,0.00,WUHU215HW,2013-01-10 16:44:00,
2013-01-10 10:49:00,32.7,28.1,30.04,SSE,158,0.0,0.0,83,0.00,,,0.00,WUHU215HW,2013-01-10 16:49:00,
2013-01-10 10:50:00,32.6,28.0,30.04,SSE,158,0.0,0.0,83,0.00,,,0.00,WUHU215HW,2013-01-10 16:50:00,
2013-01-10 10:51:00,32.6,28.0,30.04,SSE,158,0.0,0.0,83,0.00,,,0.00,WUHU215HW,2013-01-10 16:51:00,
2013-01-10 10:56:00,32.2,27.6,30.04,SSE,158,0.0,0.0,83,0.00,,,0.00,WUHU215HW,2013-01-10 16:56:00,
2013-01-10 10:57:00,32.1,27.8,30.04,SSE,158,0.0,0.0,84,0.00,,,0.00,WUHU215HW,2013-01-10 16:57:00,
2013-01-10 10:58:00,32.1,27.8,30.04,SSE,158,0.0,0.0,84,0.00,,,0.00,WUHU215HW,2013-01-10 16:58:00,
2013-01-10 11:02:00,31.7,27.4,30.04,SSE,158,0.0,0.0,84,0.00,,,0.00,WUHU215HW,2013-01-10 17:02:00,
2013-01-10 11:03:00,31.7,27.4,30.04,SSE,158,0.0,0.0,84,0.00,,,0.00,WUHU215HW,2013-01-10 17:03:00,
2013-01-10 11:05:00,31.6,27.3,30.04,SSE,158,0.0,0.0,84,0.00,,,0.00,WUHU215HW,2013-01-10 17:05:00,
2013-01-10 11:08:00,31.5,27.2,30.04,SSE,158,0.0,0.0,84,0.00,,,0.00,WUHU215HW,2013-01-10 17:08:00,
2013-01-10 11:09:00,31.5,27.2,30.04,SSE,158,0.0,0.0,84,0.00,,,0.00,WUHU215HW,2013-01-10 17:09:00,
2013-01-10 11:13:00,31.4,27.1,30.04,SSE,158,0.0,0.0,84,0.00,,,0.00,WUHU215HW,2013-01-10 17:13:00,
2013-01-10 11:14:00,31.4,27.1,30.04,SE,135,0.0,0.0,84,0.00,,,0.00,WUHU215HW,2013-01-10 17:14:00,
2013-01-10 11:15:00,31.3,27.0,30.04,SE,135,0.0,0.0,84,0.00,,,0.00,WUHU215HW,2013-01-10 17:15:00,
2013-01-10 11:19:00,31.2,27.2,30.04,SSE,158,0.0,0.0,85,0.00,,,0.00,WUHU215HW,2013-01-10 17:19:00,
2013-01-10 11:20:00,31.2,27.2,30.04,SSE,158,0.0,0.0,85,0.00,,,0.00,WUHU215HW,2013-01-10 17:20:00,
2013-01-10 11:24:00,30.9,26.9,30.04,SSE,158,0.0,0.0,85,0.00,,,0.00,WUHU215HW,2013-01-10 17:24:00,
2013-01-10 11:25:00,30.9,26.9,30.04,SE,135,0.0,0.0,85,0.00,,,0.00,WUHU215HW,2013-01-10 17:25:00,
2013-01-10 11:27:00,30.8,26.8,30.04,SE,135,0.0,0.0,85,0.00,,,0.00,WUHU215HW,2013-01-10 17:27:00,
2013-01-10 11:30:00,30.8,26.8,30.04,SE,135,0.0,0.0,85,0.00,,,0.00,WUHU215HW,2013-01-10 17:30:00,
2013-01-10 11:32:00,30.7,26.7,30.04,SSE,158,0.0,0.0,85,0.00,,,0.00,WUHU215HW,2013-01-10 17:32:00,
2013-01-10 11:37:00,30.6,26.6,30.04,SSE,158,0.0,0.0,85,0.00,,,0.00,WUHU215HW,2013-01-10 17:37:00,
2013-01-10 11:38:00,30.6,26.6,30.04,SSE,158,0.0,0.0,85,0.00,,,0.00,WUHU215HW,2013-01-10 17:38:00,
2013-01-10 11:43:00,30.3,26.3,30.04,NNE,23,0.0,0.0,85,0.00,,,0.00,WUHU215HW,2013-01-10 17:43:00,
2013-01-10 11:44:00,30.3,26.3,30.04,SE,135,0.0,0.0,85,0.00,,,0.00,WUHU215HW,2013-01-10 17:44:00,
2013-01-10 11:48:00,30.0,26.0,30.04,SE,135,0.0,0.0,85,0.00,,,0.00,WUHU215HW,2013-01-10 17:48:00,
2013-01-10 11:49:00,30.0,26.0,30.04,SE,135,0.0,0.0,85,0.00,,,0.00,WUHU215HW,2013-01-10 17:49:00,
2013-01-10 11:54:00,30.1,26.1,30.04,SSE,158,0.0,0.0,85,0.00,,,0.00,WUHU215HW,2013-01-10 17:54:00,
2013-01-10 11:55:00,29.9,25.9,30.04,SSE,158,0.0,0.0,85,0.00,,,0.00,WUHU215HW,2013-01-10 17:55:00,
2013-01-10 11:56:00,29.9,25.9,30.04,SSE,158,0.0,0.0,85,0.00,,,0.00,WUHU215HW,2013-01-10 17:56:00,
2013-01-10 12:01:00,30.0,26.0,30.04,SE,135,0.0,0.0,85,0.00,,,0.00,WUHU215HW,2013-01-10 18:01:00,
2013-01-10 12:06:00,29.9,26.2,30.04,SSE,158,0.0,0.0,86,0.02,,,0.02,WUHU215HW,2013-01-10 18:06:00,
2013-01-10 12:09:00,29.9,26.2,30.04,SSE,158,0.0,0.0,86,0.02,,,0.02,WUHU215HW,2013-01-10 18:09:00,
2013-01-10 12:10:00,29.9,26.2,30.04,SSE,158,0.0,0.0,86,0.02,,,0.02,WUHU215HW,2013-01-10 18:10:00,
2013-01-10 12:12:00,29.9,26.2,30.04,SSE,158,0.0,0.0,86,0.02,,,0.02,WUHU215HW,2013-01-10 18:12:00,
2013-01-10 12:14:00,29.7,26.0,30.04,SSE,158,0.0,0.0,86,0.02,,,0.02,WUHU215HW,2013-01-10 18:14:00,
2013-01-10 12:17:00,29.9,26.1,30.04,SSE,158,0.0,0.0,86,0.02,,,0.02,WUHU215HW,2013-01-10 18:17:00,
2013-01-10 12:18:00,29.6,25.9,30.04,SSE,158,0.0,0.0,86,0.02,,,0.02,WUHU215HW,2013-01-10 18:18:00,
2013-01-10 12:20:00,29.6,25.9,30.04,SSE,158,0.0,0.0,86,0.02,,,0.02,WUHU215HW,2013-01-10 18:20:00,
2013-01-10 12:24:00,29.8,26.1,30.04,SSE,158,0.0,0.0,86,0.02,,,0.02,WUHU215HW,2013-01-10 18:24:00,
2013-01-10 12:28:00,30.0,26.3,30.04,SSE,158,0.0,0.0,86,0.02,,,0.02,WUHU215HW,2013-01-10 18:28:00,
2013-01-10 12:29:00,30.0,26.3,30.04,SSE,158,0.0,0.0,86,0.02,,,0.02,WUHU215HW,2013-01-10 18:29:00,
2013-01-10 12:32:00,30.2,26.5,30.04,SSE,158,0.0,0.0,86,0.04,,,0.04,WUHU215HW,2013-01-10 18:32:00,
2013-01-10 12:33:00,30.2,26.5,30.04,SSE,158,0.0,0.0,86,0.04,,,0.04,WUHU215HW,2013-01-10 18:33:00,
2013-01-10 12:38:00,30.5,27.1,30.04,SSE,158,0.0,0.0,87,0.04,,,0.04,WUHU215HW,2013-01-10 18:38:00,
2013-01-10 12:39:00,30.5,27.1,30.04,SSE,158,0.0,0.0,87,0.04,,,0.04,WUHU215HW,2013-01-10 18:39:00,
2013-01-10 12:44:00,30.9,27.5,30.04,SSE,158,0.0,0.0,87,0.04,,,0.04,WUHU215HW,2013-01-10 18:44:00,
2013-01-10 12:46:00,31.1,27.7,30.04,SSE,158,0.0,0.0,87,0.04,,,0.04,WUHU215HW,2013-01-10 18:46:00,
2013-01-10 12:47:00,31.1,27.7,30.04,SSE,158,0.0,0.0,87,0.06,,,0.06,WUHU215HW,2013-01-10 18:47:00,
2013-01-10 12:49:00,31.1,27.4,30.04,SSE,158,0.0,0.0,86,0.06,,,0.06,WUHU215HW,2013-01-10 18:49:00,
2013-01-10 12:51:00,31.5,27.7,30.04,SSE,158,0.0,0.0,86,0.06,,,0.06,WUHU215HW,2013-01-10 18:51:00,
2013-01-10 12:54:00,31.9,28.1,30.04,SSE,158,0.0,0.0,86,0.06,,,0.06,WUHU215HW,2013-01-10 18:54:00,
2013-01-10 12:58:00,31.9,28.2,30.04,SSE,158,0.0,0.0,86,0.06,,,0.06,WUHU215HW,2013-01-10 18:58:00,
2013-01-10 13:00:00,32.1,28.4,30.04,SSE,158,0.0,0.0,86,0.06,,,0.06,WUHU215HW,2013-01-10 19:00:00,
2013-01-10 13:03:00,32.5,28.7,30.04,SSE,158,0.0,0.0,86,0.04,,,0.06,WUHU215HW,2013-01-10 19:03:00,
2013-01-10 13:05:00,32.5,28.7,30.04,SSE,158,0.0,0.0,86,0.04,,,0.06,WUHU215HW,2013-01-10 19:05:00,
2013-01-10 13:09:00,32.7,29.0,30.04,SSE,158,0.0,0.0,86,0.04,,,0.06,WUHU215HW,2013-01-10 19:09:00,
2013-01-10 13:10:00,32.7,29.0,30.04,SSE,158,0.0,0.0,86,0.04,,,0.06,WUHU215HW,2013-01-10 19:10:00,
2013-01-10 13:11:00,32.8,29.0,30.04,SSE,158,0.0,0.0,86,0.04,,,0.06,WUHU215HW,2013-01-10 19:11:00,
2013-01-10 13:16:00,33.0,29.0,30.04,SSE,158,0.0,0.0,85,0.04,,,0.06,WUHU215HW,2013-01-10 19:16:00,
2013-01-10 13:18:00,33.1,29.0,30.04,SSE,158,0.0,0.0,85,0.04,,,0.06,WUHU215HW,2013-01-10 19:18:00,
2013-01-10 13:22:00,33.1,29.1,30.04,SSE,158,0.0,0.0,85,0.04,,,0.06,WUHU215HW,2013-01-10 19:22:00,
2013-01-10 13:23:00,33.2,29.1,30.04,SSE,158,0.0,0.0,85,0.04,,,0.06,WUHU215HW,2013-01-10 19:23:00,
2013-01-10 13:27:00,33.2,29.2,30.04,SSE,158,0.0,0.0,85,0.04,,,0.06,WUHU215HW,2013-01-10 19:27:00,
2013-01-10 13:30:00,33.3,29.2,30.04,SSE,158,0.0,0.0,85,0.02,,,0.06,WUHU215HW,2013-01-10 19:30:00,
2013-01-10 13:33:00,33.3,29.3,30.04,SSE,158,0.0,0.0,85,0.02,,,0.06,WUHU215HW,2013-01-10 19:33:00,
2013-01-10 13:38:00,33.7,29.6,30.04,SSE,158,0.0,0.0,85,0.02,,,0.06,WUHU215HW,2013-01-10 19:38:00,
2013-01-10 13:43:00,34.7,30.9,30.04,SSE,158,0.0,0.0,86,0.02,,,0.06,WUHU215HW,2013-01-10 19:43:00,
2013-01-10 13:47:00,35.0,30.9,30.04,SE,135,0.0,0.0,85,0.00,,,0.06,WUHU215HW,2013-01-10 19:47:00,
2013-01-10 13:48:00,35.1,31.0,30.04,SE,135,0.0,0.0,85,0.00,,,0.06,WUHU215HW,2013-01-10 19:48:00,
2013-01-10 13:53:00,35.4,31.4,30.04,SE,135,0.0,0.0,85,0.00,,,0.06,WUHU215HW,2013-01-10 19:53:00,
2013-01-10 13:58:00,35.8,31.4,30.04,SE,135,0.0,0.0,84,0.00,,,0.06,WUHU215HW,2013-01-10 19:58:00,
2013-01-10 13:59:00,35.8,31.4,30.04,SE,135,0.0,0.0,84,0.00,,,0.06,WUHU215HW,2013-01-10 19:59:00,
2013-01-10 14:03:00,35.9,31.6,30.04,SE,135,0.0,0.0,84,0.00,,,0.06,WUHU215HW,2013-01-10 20:03:00,
2013-01-10 14:07:00,36.1,31.7,30.04,SE,135,0.0,0.0,84,0.00,,,0.06,WUHU215HW,2013-01-10 20:07:00,
2013-01-10 14:08:00,36.1,31.7,30.04,SE,135,0.0,0.0,84,0.00,,,0.06,WUHU215HW,2013-01-10 20:08:00,
2013-01-10 14:13:00,36.5,32.1,30.04,SSE,158,0.0,0.0,84,0.00,,,0.06,WUHU215HW,2013-01-10 20:13:00,
2013-01-10 14:15:00,36.5,32.2,30.04,SSE,158,0.0,0.0,84,0.00,,,0.06,WUHU215HW,2013-01-10 20:15:00,
2013-01-10 14:17:00,36.6,32.2,30.04,SSE,158,0.0,0.0,84,0.00,,,0.06,WUHU215HW,2013-01-10 20:17:00,
2013-01-10 14:20:00,36.7,32.3,30.04,SSE,158,0.0,0.0,84,0.00,,,0.06,WUHU215HW,2013-01-10 20:20:00,
2013-01-10 14:21:00,36.8,32.4,30.04,SSE,158,0.0,0.0,84,0.00,,,0.06,WUHU215HW,2013-01-10 20:21:00,
2013-01-10 14:26:00,36.7,32.1,30.04,SSE,158,0.0,0.0,83,0.00,,,0.06,WUHU215HW,2013-01-10 20:26:00,
2013-01-10 14:29:00,36.9,32.2,30.04,SSE,158,0.0,0.0,83,0.00,,,0.06,WUHU215HW,2013-01-10 20:29:00,
2013-01-10 14:34:00,36.8,32.2,30.04,SSE,158,0.0,0.0,83,0.00,,,0.06,WUHU215HW,2013-01-10 20:34:00,
2013-01-10 14:35:00,36.9,32.2,30.04,SSE,158,0.0,0.0,83,0.00,,,0.06,WUHU215HW,2013-01-10 20:35:00,
2013-01-10 14:39:00,36.9,32.2,30.04,SSE,158,0.0,0.0,83,0.00,,,0.06,WUHU215HW,2013-01-10 20:39:00,
2013-01-10 14:43:00,36.7,32.0,30.04,SSE,158,0.0,0.0,83,0.00,,,0.06,WUHU215HW,2013-01-10 20:43:00,
2013-01-10 14:44:00,37.0,32.3,30.04,SSE,158,0.0,0.0,83,0.00,,,0.06,WUHU215HW,2013-01-10 20:44:00,
2013-01-10 14:49:00,37.0,32.6,30.04,SSE,158,0.0,0.0,84,0.00,,,0.06,WUHU215HW,2013-01-10 20:49:00,
2013-01-10 14:54:00,37.0,32.6,30.04,SSE,158,0.0,0.0,84,0.00,,,0.06,WUHU215HW,2013-01-10 20:54:00,
2013-01-10 14:58:00,37.2,32.8,30.04,SE,135,0.0,0.0,84,0.00,,,0.06,WUHU215HW,2013-01-10 20:58:00,
2013-01-10 14:59:00,37.2,32.8,30.04,SSE,158,0.0,0.0,84,0.00,,,0.06,WUHU215HW,2013-01-10 20:59:00,
2013-01-10 15:03:00,37.4,33.0,30.04,SSE,158,0.0,0.0,84,0.00,,,0.06,WUHU215HW,2013-01-10 21:03:00,
2013-01-10 15:05:00,37.5,33.1,30.04,SSE,158,0.0,0.0,84,0.00,,,0.06,WUHU215HW,2013-01-10 21:05:00,
2013-01-10 15:08:00,37.6,33.5,30.04,SSE,158,0.0,0.0,85,0.00,,,0.06,WUHU215HW,2013-01-10 21:08:00,
2013-01-10 15:10:00,37.7,33.6,30.04,SSE,158,0.0,0.0,85,0.00,,,0.06,WUHU215HW,2013-01-10 21:10:00,
2013-01-10 15:11:00,37.8,33.6,30.04,SSE,158,0.0,0.0,85,0.00,,,0.06,WUHU215HW,2013-01-10 21:11:00,
2013-01-10 15:16:00,38.2,34.1,30.04,SSE,158,0.0,0.0,85,0.00,,,0.06,WUHU215HW,2013-01-10 21:16:00,
2013-01-10 15:19:00,38.3,34.2,30.04,SSE,158,0.0,0.0,85,0.00,,,0.06,WUHU215HW,2013-01-10 21:19:00,
2013-01-10 15:22:00,38.3,34.2,30.04,SSE,158,0.0,0.0,85,0.00,,,0.06,WUHU215HW,2013-01-10 21:22:00,
2013-01-10 15:27:00,38.5,34.4,30.04,SSE,158,0.0,0.0,85,0.00,,,0.06,WUHU215HW,2013-01-10 21:27:00,
2013-01-10 15:32:00,38.8,34.6,30.04,SSE,158,0.0,0.0,85,0.00,,,0.06,WUHU215HW,2013-01-10 21:32:00,
2013-01-10 15:33:00,38.4,34.3,30.04,SSE,158,0.0,0.0,85,0.00,,,0.06,WUHU215HW,2013-01-10 21:33:00,
2013-01-10 15:38:00,38.6,34.4,30.04,SSE,158,0.0,0.0,85,0.00,,,0.06,WUHU215HW,2013-01-10 21:38:00,
2013-01-10 15:40:00,38.5,34.3,30.04,SSE,158,0.0,0.0,85,0.00,,,0.06,WUHU215HW,2013-01-10 21:40:00,
2013-01-10 15:44:00,38.3,34.1,30.04,SE,135,0.0,0.0,85,0.00,,,0.06,WUHU215HW,2013-01-10 21:44:00,
2013-01-10 15:45:00,38.3,34.2,30.04,SE,135,0.0,0.0,85,0.00,,,0.06,WUHU215HW,2013-01-10 21:45:00,
2013-01-10 15:47:00,38.2,34.1,30.04,SE,135,0.0,0.0,85,0.00,,,0.06,WUHU215HW,2013-01-10 21:47:00,
2013-01-10 15:50:00,38.3,34.2,30.04,SE,135,0.0,0.0,85,0.00,,,0.06,WUHU215HW,2013-01-10 21:50:00,
2013-01-10 15:52:00,38.2,34.1,30.04,SE,135,0.0,0.0,85,0.00,,,0.06,WUHU215HW,2013-01-10 21:52:00,
2013-01-10 15:55:00,38.3,34.2,30.04,SE,135,0.0,0.0,85,0.00,,,0.06,WUHU215HW,2013-01-10 21:55:00,
2013-01-10 15:59:00,38.3,34.5,30.04,SE,135,0.0,0.0,86,0.00,,,0.06,WUHU215HW,2013-01-10 21:59:00,
2013-01-10 16:00:00,38.4,34.5,30.04,SE,135,0.0,0.0,86,0.00,,,0.06,WUHU215HW,2013-01-10 22:00:00,
2013-01-10 16:05:00,38.7,34.8,30.04,SE,135,0.0,0.0,86,0.02,,,0.08,WUHU215HW,2013-01-10 22:05:00,
2013-01-10 16:08:00,38.4,34.5,30.04,SE,135,0.0,0.0,86,0.02,,,0.08,WUHU215HW,2013-01-10 22:08:00,
2013-01-10 16:11:00,38.2,34.4,30.04,SE,135,0.0,0.0,86,0.04,,,0.10,WUHU215HW,2013-01-10 22:11:00,
2013-01-10 16:15:00,38.0,34.2,30.04,SE,135,0.0,0.0,86,0.04,,,0.10,WUHU215HW,2013-01-10 22:15:00,
2013-01-10 16:16:00,37.9,34.0,30.04,SE,135,0.0,0.0,86,0.04,,,0.10,WUHU215HW,2013-01-10 22:16:00,
2013-01-10 16:18:00,37.9,34.0,30.04,SE,135,0.0,0.0,86,0.04,,,0.10,WUHU215HW,2013-01-10 22:18:00,
2013-01-10 16:21:00,37.7,34.2,30.04,SE,135,0.0,0.0,87,0.06,,,0.12,WUHU215HW,2013-01-10 22:21:00,
2013-01-10 16:23:00,37.6,34.1,30.04,SE,135,0.0,0.0,87,0.06,,,0.12,WUHU215HW,2013-01-10 22:23:00,
2013-01-10 16:28:00,37.4,33.8,30.04,SE,135,0.0,0.0,87,0.06,,,0.12,WUHU215HW,2013-01-10 22:28:00,
2013-01-10 16:29:00,37.3,33.8,30.04,SE,135,0.0,0.0,87,0.06,,,0.12,WUHU215HW,2013-01-10 22:29:00,
2013-01-10 16:33:00,37.7,34.2,30.04,SE,135,0.0,0.0,87,0.06,,,0.12,WUHU215HW,2013-01-10 22:33:00,
2013-01-10 16:34:00,37.7,34.1,30.04,SE,135,0.0,0.0,87,0.06,,,0.12,WUHU215HW,2013-01-10 22:34:00,
2013-01-10 16:39:00,37.4,34.2,30.04,SE,135,0.0,0.0,88,0.08,,,0.14,WUHU215HW,2013-01-10 22:39:00,
2013-01-10 16:41:00,37.4,34.1,30.04,SE,135,0.0,0.0,88,0.08,,,0.14,WUHU215HW,2013-01-10 22:41:00,
2013-01-10 16:45:00,37.2,33.6,30.04,SE,135,0.0,0.0,87,0.08,,,0.14,WUHU215HW,2013-01-10 22:45:00,
2013-01-10 16:46:00,37.1,33.6,30.04,SE,135,0.0,0.0,87,0.08,,,0.14,WUHU215HW,2013-01-10 22:46:00,
2013-01-10 16:50:00,37.0,33.4,30.04,SE,135,0.0,0.0,87,0.08,,,0.14,WUHU215HW,2013-01-10 22:50:00,
2013-01-10 16:52:00,36.9,33.4,30.04,SE,135,0.0,0.0,87,0.08,,,0.14,WUHU215HW,2013-01-10 22:52:00,
2013-01-10 16:55:00,36.8,33.3,30.04,SE,135,0.0,0.0,87,0.08,,,0.14,WUHU215HW,2013-01-10 22:55:00,
2013-01-10 16:57:00,36.5,33.0,30.04,SE,135,0.0,0.0,87,0.08,,,0.14,WUHU215HW,2013-01-10 22:57:00,
2013-01-10 17:01:00,36.4,32.9,30.04,South,180,0.0,0.0,87,0.08,,,0.14,WUHU215HW,2013-01-10 23:01:00,
2013-01-10 17:03:00,36.3,32.8,30.04,South,180,0.0,0.0,87,0.06,,,0.14,WUHU215HW,2013-01-10 23:03:00,
2013-01-10 17:06:00,36.3,33.0,30.04,South,180,0.0,0.0,88,0.06,,,0.14,WUHU215HW,2013-01-10 23:06:00,
2013-01-10 17:08:00,35.8,32.6,30.04,South,180,0.0,0.0,88,0.06,,,0.14,WUHU215HW,2013-01-10 23:08:00,
2013-01-10 17:11:00,35.7,32.5,30.04,South,180,0.0,0.0,88,0.04,,,0.14,WUHU215HW,2013-01-10 23:11:00,
2013-01-10 17:13:00,35.7,32.4,30.04,South,180,0.0,0.0,88,0.04,,,0.14,WUHU215HW,2013-01-10 23:13:00,
2013-01-10 17:17:00,35.5,32.3,30.04,South,180,0.0,0.0,88,0.04,,,0.14,WUHU215HW,2013-01-10 23:17:00,
2013-01-10 17:19:00,35.5,32.2,30.04,South,180,0.0,0.0,88,0.04,,,0.14,WUHU215HW,2013-01-10 23:19:00,
2013-01-10 17:23:00,35.2,32.0,30.04,SSE,158,0.0,0.0,88,0.02,,,0.14,WUHU215HW,2013-01-10 23:23:00,
2013-01-10 17:24:00,35.2,32.0,30.04,SSE,158,0.0,0.0,88,0.02,,,0.14,WUHU215HW,2013-01-10 23:24:00,
2013-01-10 17:25:00,35.2,31.9,30.04,SSE,158,0.0,0.0,88,0.02,,,0.14,WUHU215HW,2013-01-10 23:25:00,
2013-01-10 17:29:00,35.1,31.9,30.04,SSE,158,0.0,0.0,88,0.02,,,0.14,WUHU215HW,2013-01-10 23:29:00,
2013-01-10 17:31:00,35.1,31.9,30.04,SSE,158,0.0,0.0,88,0.02,,,0.14,WUHU215HW,2013-01-10 23:31:00,
2013-01-10 17:35:00,34.9,31.7,30.04,SSE,158,0.0,0.0,88,0.02,,,0.14,WUHU215HW,2013-01-10 23:35:00,
2013-01-10 17:39:00,34.9,31.7,30.04,SSE,158,0.0,0.0,88,0.00,,,0.14,WUHU215HW,2013-01-10 23:39:00,
2013-01-10 17:43:00,34.9,31.7,30.04,SSE,158,0.0,0.0,88,0.00,,,0.14,WUHU215HW,2013-01-10 23:43:00,
2013-01-10 17:45:00,34.9,31.7,30.04,SSE,158,0.0,0.0,88,0.00,,,0.14,WUHU215HW,2013-01-10 23:45:00,
2013-01-10 17:50:00,34.8,31.5,30.04,SSE,158,0.0,0.0,88,0.00,,,0.14,WUHU215HW,2013-01-10 23:50:00,
2013-01-10 17:51:00,34.8,31.5,30.04,SSE,158,0.0,0.0,88,0.00,,,0.14,WUHU215HW,2013-01-10 23:51:00,
2013-01-10 17:56:00,34.6,31.4,30.04,SSE,158,0.0,0.0,88,0.00,,,0.14,WUHU215HW,2013-01-10 23:56:00,
2013-01-10 17:57:00,34.7,31.4,30.04,SSE,158,0.0,0.0,88,0.00,,,0.14,WUHU215HW,2013-01-10 23:57:00,
2013-01-10 17:58:00,34.7,31.5,30.04,SSE,158,0.0,0.0,88,0.00,,,0.14,WUHU215HW,2013-01-10 23:58:00,
2013-01-10 18:02:00,34.8,31.5,30.04,SSE,158,0.0,0.0,88,0.00,,,0.14,WUHU215HW,2013-01-11 00:02:00,
2013-01-10 18:03:00,34.8,31.8,30.04,SSE,158,0.0,0.0,89,0.00,,,0.14,WUHU215HW,2013-01-11 00:03:00,
2013-01-10 18:08:00,34.6,31.7,30.04,SSE,158,0.0,0.0,89,0.00,,,0.14,WUHU215HW,2013-01-11 00:08:00,
2013-01-10 18:10:00,34.7,31.7,30.04,SSE,158,0.0,0.0,89,0.00,,,0.14,WUHU215HW,2013-01-11 00:10:00,
2013-01-10 18:13:00,34.7,31.8,30.04,SSE,158,0.0,0.0,89,0.00,,,0.14,WUHU215HW,2013-01-11 00:13:00,
2013-01-10 18:14:00,34.8,31.8,30.04,SSE,158,0.0,0.0,89,0.00,,,0.14,WUHU215HW,2013-01-11 00:14:00,
2013-01-10 18:16:00,34.8,31.9,30.04,SSE,158,0.0,0.0,89,0.00,,,0.14,WUHU215HW,2013-01-11 00:16:00,
2013-01-10 18:19:00,34.9,32.0,30.04,SSE,158,0.0,0.0,89,0.00,,,0.14,WUHU215HW,2013-01-11 00:19:00,
2013-01-10 18:21:00,35.0,32.1,30.04,SSE,158,0.0,0.0,89,0.00,,,0.14,WUHU215HW,2013-01-11 00:21:00,
2013-01-10 18:26:00,35.2,32.2,30.04,SSE,158,0.0,0.0,89,0.00,,,0.14,WUHU215HW,2013-01-11 00:26:00,
2013-01-10 18:27:00,35.2,32.3,30.04,SSE,158,0.0,0.0,89,0.00,,,0.14,WUHU215HW,2013-01-11 00:27:00,
2013-01-10 18:31:00,35.2,32.2,30.04,SSE,158,0.0,0.0,89,0.00,,,0.14,WUHU215HW,2013-01-11 00:31:00,
2013-01-10 18:33:00,35.3,32.3,30.04,SSE,158,0.0,0.0,89,0.00,,,0.14,WUHU215HW,2013-01-11 00:33:00,
2013-01-10 18:36:00,35.4,32.5,30.04,SSE,158,0.0,0.0,89,0.00,,,0.14,WUHU215HW,2013-01-11 00:36:00,
2013-01-10 18:41:00,35.6,32.7,30.04,SSE,158,0.0,0.0,89,0.00,,,0.14,WUHU215HW,2013-01-11 00:41:00,
2013-01-10 18:43:00,35.7,32.8,30.04,SSE,158,0.0,0.0,89,0.00,,,0.14,WUHU215HW,2013-01-11 00:43:00,
2013-01-10 18:46:00,35.9,32.9,30.04,SSE,158,0.0,0.0,89,0.00,,,0.14,WUHU215HW,2013-01-11 00:46:00,
2013-01-10 18:47:00,35.9,33.0,30.04,SSE,158,0.0,0.0,89,0.00,,,0.14,WUHU215HW,2013-01-11 00:47:00,
2013-01-10 18:50:00,36.1,33.1,30.04,SSE,158,0.0,0.0,89,0.00,,,0.14,WUHU215HW,2013-01-11 00:50:00,
2013-01-10 18:53:00,36.2,33.3,30.04,SSE,158,0.0,0.0,89,0.00,,,0.14,WUHU215HW,2013-01-11 00:53:00,
2013-01-10 18:56:00,36.4,33.4,30.04,SSE,158,0.0,0.0,89,0.00,,,0.14,WUHU215HW,2013-01-11 00:56:00,
2013-01-10 18:58:00,36.3,33.6,30.04,SSE,158,0.0,0.0,90,0.00,,,0.14,WUHU215HW,2013-01-11 00:58:00,
2013-01-10 19:04:00,36.6,33.9,30.04,SE,135,0.0,0.0,90,0.00,,,0.14,WUHU215HW,2013-01-11 01:04:00,
2013-01-10 19:09:00,36.8,34.1,30.04,SE,135,0.0,0.0,90,0.00,,,0.14,WUHU215HW,2013-01-11 01:09:00,
2013-01-10 19:10:00,36.8,34.1,30.04,SE,135,0.0,0.0,90,0.00,,,0.14,WUHU215HW,2013-01-11 01:10:00,
2013-01-10 19:14:00,36.8,33.9,30.04,SE,135,0.0,0.0,90,0.00,,,0.14,WUHU215HW,2013-01-11 01:14:00,
2013-01-10 19:19:00,36.8,33.9,30.04,SE,135,0.0,0.0,90,0.00,,,0.14,WUHU215HW,2013-01-11 01:19:00,
2013-01-10 19:21:00,36.8,34.1,30.04,SE,135,0.0,0.0,90,0.00,,,0.14,WUHU215HW,2013-01-11 01:21:00,
2013-01-10 19:26:00,36.6,33.9,30.04,SE,135,0.0,0.0,90,0.00,,,0.14,WUHU215HW,2013-01-11 01:26:00,
2013-01-10 19:27:00,36.6,33.9,30.04,SE,135,0.0,0.0,90,0.00,,,0.14,WUHU215HW,2013-01-11 01:27:00,
2013-01-10 19:32:00,36.6,33.9,30.04,SSE,158,0.0,0.0,90,0.00,,,0.14,WUHU215HW,2013-01-11 01:32:00,
2013-01-10 19:33:00,36.6,33.9,30.04,SSE,158,0.0,0.0,90,0.00,,,0.14,WUHU215HW,2013-01-11 01:33:00,
2013-01-10 19:38:00,36.6,33.9,30.04,SSE,158,0.0,0.0,90,0.00,,,0.14,WUHU215HW,2013-01-11 01:38:00,
2013-01-10 19:40:00,36.6,33.9,30.04,SE,135,0.0,0.0,90,0.00,,,0.14,WUHU215HW,2013-01-11 01:40:00,
2013-01-10 19:43:00,36.6,33.9,30.04,SE,135,0.0,0.0,90,0.00,,,0.14,WUHU215HW,2013-01-11 01:43:00,
2013-01-10 19:45:00,36.6,33.9,30.04,SE,135,0.0,0.0,90,0.00,,,0.14,WUHU215HW,2013-01-11 01:45:00,
2013-01-10 19:49:00,36.6,33.9,30.04,SE,135,0.0,0.0,90,0.00,,,0.14,WUHU215HW,2013-01-11 01:49:00,
2013-01-10 19:51:00,36.6,33.9,30.04,SE,135,0.0,0.0,90,0.00,,,0.14,WUHU215HW,2013-01-11 01:51:00,
2013-01-10 19:54:00,36.6,34.2,30.04,SE,135,0.0,0.0,91,0.00,,,0.14,WUHU215HW,2013-01-11 01:54:00,
2013-01-10 19:57:00,36.8,34.2,30.04,SSE,158,0.0,0.0,91,0.00,,,0.14,WUHU215HW,2013-01-11 01:57:00,
2013-01-10 20:00:00,36.8,34.2,30.04,SSE,158,0.0,0.0,91,0.00,,,0.14,WUHU215HW,2013-01-11 02:00:00,
2013-01-10 20:03:00,36.8,34.4,30.04,SSE,158,0.0,0.0,91,0.00,,,0.14,WUHU215HW,2013-01-11 02:03:00,
2013-01-10 20:05:00,36.8,34.4,30.04,SSE,158,0.0,0.0,91,0.00,,,0.14,WUHU215HW,2013-01-11 02:05:00,
2013-01-10 20:10:00,36.8,34.4,30.04,SSE,158,0.0,0.0,91,0.00,,,0.14,WUHU215HW,2013-01-11 02:10:00,
2013-01-10 20:11:00,36.8,34.4,30.04,SSE,158,0.0,0.0,91,0.00,,,0.14,WUHU215HW,2013-01-11 02:11:00,
2013-01-10 20:15:00,37.0,34.4,30.04,SSE,158,0.0,0.0,91,0.00,,,0.14,WUHU215HW,2013-01-11 02:15:00,
2013-01-10 20:20:00,37.0,34.6,30.04,SSE,158,0.0,0.0,91,0.00,,,0.14,WUHU215HW,2013-01-11 02:20:00,
2013-01-10 20:21:00,37.0,34.6,30.04,SSE,158,0.0,0.0,91,0.00,,,0.14,WUHU215HW,2013-01-11 02:21:00,
2013-01-10 20:26:00,37.0,34.6,30.04,SSE,158,0.0,0.0,91,0.00,,,0.14,WUHU215HW,2013-01-11 02:26:00,
2013-01-10 20:27:00,37.0,34.6,30.04,SSE,158,0.0,0.0,91,0.00,,,0.14,WUHU215HW,2013-01-11 02:27:00,
2013-01-10 20:31:00,37.0,34.6,30.04,SSE,158,0.0,0.0,91,0.00,,,0.14,WUHU215HW,2013-01-11 02:31:00,
2013-01-10 20:32:00,37.0,34.6,30.04,SSE,158,0.0,0.0,91,0.00,,,0.14,WUHU215HW,2013-01-11 02:32:00,
2013-01-10 20:33:00,37.0,34.6,30.04,SSE,158,0.0,0.0,91,0.00,,,0.14,WUHU215HW,2013-01-11 02:33:00,
2013-01-10 20:38:00,37.0,34.6,30.04,SSE,158,0.0,0.0,91,0.00,,,0.14,WUHU215HW,2013-01-11 02:38:00,
2013-01-10 20:41:00,37.0,34.6,30.04,SSE,158,0.0,0.0,91,0.00,,,0.14,WUHU215HW,2013-01-11 02:41:00,
2013-01-10 20:43:00,37.0,34.6,30.04,SSE,158,0.0,0.0,91,0.00,,,0.14,WUHU215HW,2013-01-11 02:43:00,
2013-01-10 20:46:00,37.0,34.6,30.04,SSE,158,0.0,0.0,91,0.00,,,0.14,WUHU215HW,2013-01-11 02:46:00,
2013-01-10 20:51:00,36.8,34.4,30.04,SSE,158,0.0,0.0,91,0.00,,,0.14,WUHU215HW,2013-01-11 02:51:00,
2013-01-10 20:52:00,36.8,34.4,30.04,SSE,158,0.0,0.0,91,0.00,,,0.14,WUHU215HW,2013-01-11 02:52:00,
2013-01-10 20:53:00,36.8,34.4,30.04,SSE,158,0.0,0.0,91,0.00,,,0.14,WUHU215HW,2013-01-11 02:53:00,
2013-01-10 20:57:00,36.8,34.4,30.04,SSE,158,0.0,0.0,91,0.00,,,0.14,WUHU215HW,2013-01-11 02:57:00,
2013-01-10 21:00:00,36.8,34.4,30.04,SSE,158,0.0,0.0,91,0.00,,,0.14,WUHU215HW,2013-01-11 03:00:00,
2013-01-10 21:02:00,36.8,34.4,30.04,SSE,158,0.0,0.0,91,0.00,,,0.14,WUHU215HW,2013-01-11 03:02:00,
2013-01-10 21:06:00,36.8,34.4,30.04,SSE,158,0.0,0.0,91,0.00,,,0.14,WUHU215HW,2013-01-11 03:06:00,
2013-01-10 21:07:00,36.8,34.4,30.04,SSE,158,0.0,0.0,91,0.00,,,0.14,WUHU215HW,2013-01-11 03:07:00,
2013-01-10 21:12:00,36.6,34.2,30.04,SSE,158,0.0,0.0,91,0.00,,,0.14,WUHU215HW,2013-01-11 03:12:00,
2013-01-10 21:16:00,36.6,34.2,30.04,SSE,158,0.0,0.0,91,0.00,,,0.14,WUHU215HW,2013-01-11 03:16:00,
2013-01-10 21:17:00,36.6,34.2,30.04,SSE,158,0.0,0.0,91,0.00,,,0.14,WUHU215HW,2013-01-11 03:17:00,
2013-01-10 21:22:00,36.6,34.2,30.04,SSE,158,0.0,0.0,91,0.00,,,0.14,WUHU215HW,2013-01-11 03:22:00,
2013-01-10 21:23:00,36.6,34.2,30.04,SSE,158,0.0,0.0,91,0.00,,,0.14,WUHU215HW,2013-01-11 03:23:00,
2013-01-10 21:27:00,36.6,34.2,30.04,SSE,158,0.0,0.0,91,0.00,,,0.14,WUHU215HW,2013-01-11 03:27:00,
2013-01-10 21:29:00,36.6,34.2,30.04,SSE,158,0.0,0.0,91,0.00,,,0.14,WUHU215HW,2013-01-11 03:29:00,
2013-01-10 21:34:00,36.6,34.2,30.04,SSE,158,0.0,0.0,91,0.00,,,0.14,WUHU215HW,2013-01-11 03:34:00,
2013-01-10 21:35:00,36.6,34.2,30.04,SSE,158,0.0,0.0,91,0.00,,,0.14,WUHU215HW,2013-01-11 03:35:00,
2013-01-10 21:40:00,36.6,34.2,30.04,SSE,158,0.0,0.0,91,0.00,,,0.14,WUHU215HW,2013-01-11 03:40:00,
2013-01-10 21:41:00,36.6,34.2,30.04,SSE,158,0.0,0.0,91,0.00,,,0.14,WUHU215HW,2013-01-11 03:41:00,
2013-01-10 21:42:00,36.6,34.2,30.04,SSE,158,0.0,0.0,91,0.00,,,0.14,WUHU215HW,2013-01-11 03:42:00,
2013-01-10 21:46:00,36.6,34.2,30.04,SSE,158,0.0,0.0,91,0.00,,,0.14,WUHU215HW,2013-01-11 03:46:00,
2013-01-10 21:48:00,36.6,34.2,30.04,SSE,158,0.0,0.0,91,0.00,,,0.14,WUHU215HW,2013-01-11 03:48:00,
2013-01-10 21:53:00,36.6,34.2,30.04,SSE,158,0.0,0.0,91,0.00,,,0.14,WUHU215HW,2013-01-11 03:53:00,
2013-01-10 21:54:00,36.6,34.2,30.04,SSE,158,0.0,0.0,91,0.00,,,0.14,WUHU215HW,2013-01-11 03:54:00,
2013-01-10 21:59:00,36.6,34.2,30.04,SSE,158,0.0,0.0,91,0.00,,,0.14,WUHU215HW,2013-01-11 03:59:00,
2013-01-10 22:00:00,36.6,34.2,30.04,SSE,158,0.0,0.0,91,0.00,,,0.14,WUHU215HW,2013-01-11 04:00:00,
2013-01-10 22:05:00,36.6,34.2,30.04,SSE,158,0.0,0.0,91,0.00,,,0.14,WUHU215HW,2013-01-11 04:05:00,
2013-01-10 22:06:00,36.6,34.2,30.04,SSE,158,0.0,0.0,91,0.00,,,0.14,WUHU215HW,2013-01-11 04:06:00,
2013-01-10 22:11:00,36.6,34.2,30.04,SSE,158,0.0,0.0,91,0.00,,,0.14,WUHU215HW,2013-01-11 04:11:00,
2013-01-10 22:16:00,36.6,34.2,30.04,SSE,158,0.0,0.0,91,0.00,,,0.14,WUHU215HW,2013-01-11 04:16:00,
2013-01-10 22:18:00,36.6,34.2,30.04,SSE,158,0.0,0.0,91,0.00,,,0.14,WUHU215HW,2013-01-11 04:18:00,
2013-01-10 22:22:00,36.6,34.2,30.04,SSE,158,0.0,0.0,91,0.00,,,0.14,WUHU215HW,2013-01-11 04:22:00,
2013-01-10 22:23:00,36.6,34.2,30.04,SSE,158,0.0,0.0,91,0.00,,,0.14,WUHU215HW,2013-01-11 04:23:00,
2013-01-10 22:28:00,36.6,34.2,30.04,SSE,158,0.0,0.0,91,0.00,,,0.14,WUHU215HW,2013-01-11 04:28:00,
2013-01-10 22:31:00,36.6,34.2,30.04,SSE,158,0.0,0.0,91,0.00,,,0.14,WUHU215HW,2013-01-11 04:31:00,
2013-01-10 22:34:00,36.6,34.2,30.04,SSE,158,0.0,0.0,91,0.00,,,0.14,WUHU215HW,2013-01-11 04:34:00,
2013-01-10 22:37:00,36.6,34.2,30.04,SSE,158,0.0,0.0,91,0.00,,,0.14,WUHU215HW,2013-01-11 04:37:00,
2013-01-10 22:39:00,36.6,34.2,30.04,SSE,158,0.0,0.0,91,0.00,,,0.14,WUHU215HW,2013-01-11 04:39:00,
2013-01-10 22:44:00,36.6,34.2,30.04,SSE,158,0.0,0.0,91,0.00,,,0.14,WUHU215HW,2013-01-11 04:44:00,
2013-01-10 22:47:00,36.6,34.2,30.04,SSE,158,0.0,0.0,91,0.00,,,0.14,WUHU215HW,2013-01-11 04:47:00,
2013-01-10 22:49:00,36.6,34.2,30.04,SSE,158,0.0,0.0,91,0.00,,,0.14,WUHU215HW,2013-01-11 04:49:00,
2013-01-10 22:52:00,36.6,34.2,30.04,SSE,158,0.0,0.0,91,0.00,,,0.14,WUHU215HW,2013-01-11 04:52:00,
2013-01-10 22:55:00,36.6,34.2,30.04,SSE,158,0.0,0.0,91,0.00,,,0.14,WUHU215HW,2013-01-11 04:55:00,
2013-01-10 22:57:00,36.6,34.2,30.04,SSE,158,0.0,0.0,91,0.00,,,0.14,WUHU215HW,2013-01-11 04:57:00,
2013-01-10 23:00:00,36.6,34.2,30.04,SSE,158,0.0,0.0,91,0.00,,,0.14,WUHU215HW,2013-01-11 05:00:00,
2013-01-10 23:03:00,36.8,34.4,30.04,SSE,158,0.0,0.0,91,0.00,,,0.14,WUHU215HW,2013-01-11 05:03:00,
2013-01-10 23:05:00,37.0,34.6,30.04,SSE,158,0.0,0.0,91,0.00,,,0.14,WUHU215HW,2013-01-11 05:05:00,
2013-01-10 23:08:00,37.0,34.6,30.04,SSE,158,0.0,0.0,91,0.00,,,0.14,WUHU215HW,2013-01-11 05:08:00,
2013-01-10 23:11:00,37.0,34.6,30.04,SSE,158,0.0,0.0,91,0.00,,,0.14,WUHU215HW,2013-01-11 05:11:00,
2013-01-10 23:12:00,37.0,34.6,30.04,SSE,158,0.0,0.0,91,0.00,,,0.14,WUHU215HW,2013-01-11 05:12:00,
2013-01-10 23:16:00,37.0,34.6,30.04,SSE,158,0.0,0.0,91,0.00,,,0.14,WUHU215HW,2013-01-11 05:16:00,
2013-01-10 23:17:00,37.0,34.6,30.04,SSE,158,0.0,0.0,91,0.00,,,0.14,WUHU215HW,2013-01-11 05:17:00,
2013-01-10 23:19:00,37.0,34.6,30.04,SSE,158,0.0,0.0,91,0.00,,,0.14,WUHU215HW,2013-01-11 05:19:00,
2013-01-10 23:23:00,37.2,34.6,30.04,SSE,158,0.0,0.0,91,0.00,,,0.14,WUHU215HW,2013-01-11 05:23:00,
2013-01-10 23:26:00,37.2,35.0,30.04,SSE,158,0.0,0.0,92,0.00,,,0.14,WUHU215HW,2013-01-11 05:26:00,
2013-01-10 23:28:00,37.2,35.0,30.04,SSE,158,0.0,0.0,92,0.00,,,0.14,WUHU215HW,2013-01-11 05:28:00,
2013-01-10 23:30:00,37.2,35.0,30.04,SSE,158,0.0,0.0,92,0.00,,,0.14,WUHU215HW,2013-01-11 05:30:00,
2013-01-10 23:35:00,37.2,35.0,30.04,SE,135,0.0,0.0,92,0.00,,,0.14,WUHU215HW,2013-01-11 05:35:00,
2013-01-10 23:37:00,37.2,35.0,30.04,SE,135,0.0,0.0,92,0.00,,,0.14,WUHU215HW,2013-01-11 05:37:00,
2013-01-10 23:39:00,37.4,35.2,30.04,SE,135,0.0,0.0,92,0.00,,,0.14,WUHU215HW,2013-01-11 05:39:00,
2013-01-10 23:40:00,37.4,35.2,30.04,SE,135,0.0,0.0,92,0.00,,,0.14,WUHU215HW,2013-01-11 05:40:00,
2013-01-10 23:43:00,37.4,35.4,30.04,SE,135,0.0,0.0,92,0.00,,,0.14,WUHU215HW,2013-01-11 05:43:00,
2013-01-10 23:46:00,37.5,35.4,30.04,SSW,203,0.0,0.0,92,0.00,,,0.14,WUHU215HW,2013-01-11 05:46:00,
2013-01-10 23:51:00,37.7,35.4,30.04,SE,135,0.0,0.0,92,0.00,,,0.14,WUHU215HW,2013-01-11 05:51:00,
2013-01-10 23:54:00,37.7,35.6,30.04,SSE,158,0.0,0.0,92,0.00,,,0.14,WUHU215HW,2013-01-11 05:54:00,
2013-01-10 23:56:00,37.9,35.7,30.04,SSE,158,0.0,0.0,92,0.00,,,0.14,WUHU215HW,2013-01-11 05:56:00,
2013-01-10 23:57:00,37.9,35.7,30.04,SSE,158,0.0,0.0,92,0.00,,,0.14,WUHU215HW,2013-01-11 05:57:00,